Time;durP1;ratioP1;P1;durP2;ratioP2;P2;SDS_P1;SDS_P2;PMS_P1;PMS_P2;Temp;Humidity;BMP_temperature;BMP_pressure;BME280_temperature;BME280_humidity;BME280_pressure;Samples;Min_cycle;Max_cycle;Signal;HPM_P1;HPM_P2
2022/08/04 00:00:27;;;;;;;4.35;1.20;;;;;;;31.62;27.37;100866.66;5047213;28;20128;-72
2022/08/04 00:03:08;;;;;;;3.17;1.17;;;;;;;31.65;27.19;100868.09;5048368;28;20437;-71
2022/08/04 00:05:48;;;;;;;4.35;1.33;;;;;;;31.64;27.50;100872.84;5047720;28;20472;-71
2022/08/04 00:08:29;;;;;;;4.05;1.42;;;;;;;31.64;27.62;100870.06;5048103;28;20375;-72
2022/08/04 00:10:59;;;;;;;5.07;1.23;;;;;;;31.62;27.60;100863.00;4998132;28;20073;-72
2022/08/04 00:13:31;;;;;;;3.45;1.08;;;;;;;31.61;27.69;100862.13;5028277;28;20054;-71
2022/08/04 00:16:04;;;;;;;5.47;1.37;;;;;;;31.59;27.50;100860.63;5003696;28;20582;-72
2022/08/04 00:18:39;;;;;;;2.95;1.55;;;;;;;31.62;27.54;100857.38;5022751;28;20107;-71
2022/08/04 00:21:11;;;;;;;5.60;1.65;;;;;;;31.60;27.63;100851.97;5027700;28;20502;-71
2022/08/04 00:23:45;;;;;;;3.65;1.45;;;;;;;31.59;28.02;100853.06;5014574;28;20088;-72
2022/08/04 00:26:33;;;;;;;4.63;1.58;;;;;;;31.53;27.61;100855.97;5029858;28;20482;-72
2022/08/04 00:29:02;;;;;;;6.50;1.90;;;;;;;31.56;27.62;100858.28;5031647;28;20042;-71
2022/08/04 00:31:30;;;;;;;5.20;1.55;;;;;;;31.55;27.56;100862.19;5040202;28;20041;-72
2022/08/04 00:34:18;;;;;;;5.03;1.48;;;;;;;31.51;27.78;100850.59;5037974;28;20056;-72
2022/08/04 00:36:46;;;;;;;6.45;1.52;;;;;;;31.51;27.57;100850.59;5037763;28;20700;-72
2022/08/04 00:39:17;;;;;;;4.28;1.75;;;;;;;31.53;27.67;100850.34;5030457;28;20049;-72
2022/08/04 00:42:04;;;;;;;3.80;1.40;;;;;;;31.52;27.89;100848.66;5034011;28;20042;-72
2022/08/04 00:44:42;;;;;;;4.15;1.60;;;;;;;31.50;27.99;100837.66;5033540;28;20461;-72
2022/08/04 00:47:28;;;;;;;4.32;1.40;;;;;;;31.50;28.15;100837.66;5012894;28;20115;-72
2022/08/04 00:50:09;;;;;;;4.82;1.40;;;;;;;31.46;27.90;100828.03;5003503;28;20056;-72
2022/08/04 00:52:52;;;;;;;6.15;1.60;;;;;;;31.44;28.06;100826.53;5038487;23;20049;-67
2022/08/04 00:55:54;;;;;;;5.38;1.60;;;;;;;31.40;27.91;100837.38;5047934;28;20497;-68
2022/08/04 00:58:43;;;;;;;3.30;1.45;;;;;;;31.37;27.93;100830.31;5016766;28;20053;-67
2022/08/04 01:01:24;;;;;;;4.00;1.40;;;;;;;31.41;28.04;100821.41;4989182;28;20054;-67
2022/08/04 01:04:03;;;;;;;4.72;1.83;;;;;;;31.38;27.86;100829.19;4988598;28;20042;-68
2022/08/04 01:06:37;;;;;;;4.20;1.88;;;;;;;31.36;27.97;100822.97;5018104;28;20051;-68
2022/08/04 01:09:26;;;;;;;3.78;2.00;;;;;;;31.32;27.99;100821.75;5046883;28;20049;-68
2022/08/04 01:12:15;;;;;;;3.90;1.60;;;;;;;31.32;27.92;100806.84;5045559;28;20084;-68
2022/08/04 01:14:53;;;;;;;4.40;1.70;;;;;;;31.30;27.96;100815.50;5027773;28;20049;-68
2022/08/04 01:17:26;;;;;;;5.10;1.92;;;;;;;31.29;28.15;100807.34;5009853;28;20121;-68
2022/08/04 01:20:02;;;;;;;4.35;1.80;;;;;;;31.27;28.38;100806.72;5026781;28;20387;-69
2022/08/04 01:23:15;;;;;;;5.28;1.85;;;;;;;31.22;27.97;100810.22;5028487;28;20050;-68
2022/08/04 01:26:22;;;;;;;4.40;1.52;;;;;;;31.17;28.14;100804.50;5008342;28;20042;-68
2022/08/04 01:29:13;;;;;;;5.03;1.88;;;;;;;31.15;28.16;100803.88;4996802;28;20048;-68
2022/08/04 01:31:48;;;;;;;;;;;;;;;30.86;28.27;100801.91;5027381;28;20068;-68
2022/08/04 01:34:20;;;;;;;4.90;1.65;;;;;;;31.12;28.35;100806.31;5011571;28;19925;-69
2022/08/04 01:37:00;;;;;;;5.22;1.90;;;;;;;31.14;28.51;100809.72;5008437;28;20044;-68
2022/08/04 01:39:40;;;;;;;4.60;1.80;;;;;;;31.15;28.55;100808.63;5050380;28;20127;-68
2022/08/04 01:42:10;;;;;;;4.03;1.58;;;;;;;31.10;28.45;100808.50;5052015;28;20071;-69
2022/08/04 01:44:52;;;;;;;4.57;1.73;;;;;;;31.11;28.33;100805.47;5049913;28;20040;-68
2022/08/04 01:47:21;;;;;;;4.70;1.63;;;;;;;31.06;28.42;100805.25;5051425;28;20135;-68
2022/08/04 01:49:51;;;;;;;4.05;1.67;;;;;;;31.06;28.69;100802.47;5030686;28;20076;-68
2022/08/04 01:52:20;;;;;;;3.63;1.63;;;;;;;31.04;28.73;100801.88;5046319;28;20037;-69
2022/08/04 01:54:50;;;;;;;4.97;1.75;;;;;;;31.04;28.78;100799.06;5050388;28;20068;-69
2022/08/04 01:57:19;;;;;;;4.60;1.75;;;;;;;31.02;28.87;100801.25;5051682;28;20037;-69
2022/08/04 02:00:08;;;;;;;5.10;1.80;;;;;;;31.02;29.01;100804.06;5030630;28;20111;-68
2022/08/04 02:02:38;;;;;;;5.05;1.50;;;;;;;30.98;28.81;100803.66;5031487;28;20121;-68
2022/08/04 02:05:09;;;;;;;4.63;1.60;;;;;;;30.97;28.97;100804.75;5042860;28;20118;-68
2022/08/04 02:07:51;;;;;;;5.07;1.42;;;;;;;30.98;29.04;100805.59;5049305;28;20115;-69
2022/08/04 02:10:27;;;;;;;6.07;1.90;;;;;;;30.94;29.03;100801.56;5030859;28;20053;-68
2022/08/04 02:13:11;;;;;;;3.53;1.50;;;;;;;30.93;29.20;100806.31;5041350;28;20458;-69
2022/08/04 02:15:53;;;;;;;4.85;1.45;;;;;;;30.91;29.07;100802.03;5030876;28;20041;-68
2022/08/04 02:18:24;;;;;;;5.43;1.45;;;;;;;30.88;29.17;100794.97;5013072;28;20057;-68
2022/08/04 02:20:57;;;;;;;4.07;1.70;;;;;;;30.87;29.06;100796.06;5039637;28;20095;-68
2022/08/04 02:23:31;;;;;;;4.38;1.58;;;;;;;30.84;29.34;100793.72;5037511;28;20106;-68
2022/08/04 02:26:02;;;;;;;3.15;1.40;;;;;;;30.81;29.42;100796.13;5050246;28;20098;-69
2022/08/04 02:28:35;;;;;;;3.92;1.40;;;;;;;30.77;29.64;100789.31;5050518;28;20049;-69
2022/08/04 02:31:14;;;;;;;3.20;1.50;;;;;;;30.77;29.58;100789.31;5038792;28;20525;-68
2022/08/04 02:33:44;;;;;;;6.35;1.70;;;;;;;30.71;29.50;100788.31;5029444;28;20048;-68
2022/08/04 02:36:19;;;;;;;3.83;1.60;;;;;;;30.70;29.23;100788.53;5033198;28;20055;-68
2022/08/04 02:38:56;;;;;;;6.38;1.92;;;;;;;30.68;29.77;100783.16;5049797;28;20044;-68
2022/08/04 02:41:26;;;;;;;3.65;1.40;;;;;;;30.62;29.73;100784.97;5049901;28;20090;-69
2022/08/04 02:43:57;;;;;;;4.25;1.48;;;;;;;30.60;29.86;100789.09;5049642;28;20037;-68
2022/08/04 02:46:29;;;;;;;3.80;1.65;;;;;;;30.56;29.67;100788.69;5032626;28;20068;-68
2022/08/04 02:48:57;;;;;;;4.35;1.75;;;;;;;30.49;29.89;100787.03;5048957;28;20125;-68
2022/08/04 02:51:28;;;;;;;4.50;1.40;;;;;;;30.51;30.17;100787.72;5050484;28;20044;-68
2022/08/04 02:53:58;;;;;;;4.63;1.40;;;;;;;30.44;30.14;100784.09;5049093;28;20047;-69
2022/08/04 02:56:30;;;;;;;3.65;1.73;;;;;;;30.44;30.30;100786.91;5041371;28;20331;-68
2022/08/04 02:59:01;;;;;;;2.97;1.50;;;;;;;30.38;30.10;100774.69;5031740;28;20045;-68
2022/08/04 03:01:32;;;;;;;3.13;1.50;;;;;;;30.36;30.43;100778.81;5019122;28;20497;-68
2022/08/04 03:04:16;;;;;;;4.18;1.50;;;;;;;30.34;30.83;100776.25;5008843;28;20036;-68
2022/08/04 03:07:36;;;;;;;3.72;1.30;;;;;;;30.19;30.48;100771.03;5010477;28;20049;-68
2022/08/04 03:10:36;;;;;;;5.25;1.55;;;;;;;30.20;30.44;100769.09;5009205;28;20141;-68
2022/08/04 03:13:35;;;;;;;3.88;1.50;;;;;;;30.13;30.68;100771.97;5010477;28;20045;-67
2022/08/04 03:16:21;;;;;;;3.35;1.40;;;;;;;30.14;30.75;100773.66;4991703;28;20132;-67
2022/08/04 03:19:34;;;;;;;6.32;1.80;;;;;;;30.07;30.81;100767.28;5009326;28;20108;-67
2022/08/04 03:22:39;;;;;;;3.85;1.60;;;;;;;30.03;30.99;100762.38;5028078;28;20053;-67
2022/08/04 03:25:48;;;;;;;4.82;1.60;;;;;;;30.00;30.94;100768.44;5034673;28;20045;-67
2022/08/04 03:29:03;;;;;;;4.57;2.15;;;;;;;29.90;30.92;100761.41;5032637;28;20064;-67
2022/08/04 03:31:57;;;;;;;4.03;1.50;;;;;;;29.90;31.14;100766.13;5043676;28;20049;-67
2022/08/04 03:34:56;;;;;;;4.93;1.80;;;;;;;29.84;31.05;100762.34;5041075;28;20127;-67
2022/08/04 03:37:37;;;;;;;5.95;1.90;;;;;;;29.85;31.50;100764.03;5009890;28;20045;-67
2022/08/04 03:40:33;;;;;;;5.57;1.90;;;;;;;29.78;31.37;100765.19;5007414;28;20111;-68
2022/08/04 03:43:38;;;;;;;5.72;1.90;;;;;;;29.76;31.48;100768.22;5000808;28;20494;-67
2022/08/04 03:46:53;;;;;;;4.82;1.73;;;;;;;29.71;31.54;100764.41;5015999;28;20045;-67
2022/08/04 03:50:07;;;;;;;5.47;1.60;;;;;;;29.67;31.48;100763.16;5028411;28;20041;-68
2022/08/04 03:53:15;;;;;;;4.25;1.73;;;;;;;29.67;31.55;100765.94;5028576;28;20494;-67
2022/08/04 03:56:17;;;;;;;4.00;2.08;;;;;;;29.64;31.45;100763.63;5018248;28;20037;-67
2022/08/04 03:59:18;;;;;;;3.58;1.90;;;;;;;29.61;31.89;100767.72;5029369;28;20532;-67
2022/08/04 04:02:15;;;;;;;4.18;1.90;;;;;;;29.60;31.71;100765.16;5018399;28;20107;-67
2022/08/04 04:05:09;;;;;;;5.60;2.10;;;;;;;29.55;31.52;100771.44;5048023;28;20566;-67
2022/08/04 04:08:05;;;;;;;3.42;1.77;;;;;;;29.54;31.98;100766.09;5049465;28;20071;-67
2022/08/04 04:11:07;;;;;;;5.28;1.70;;;;;;;29.50;32.02;100771.25;5048717;28;20072;-67
2022/08/04 04:13:59;;;;;;;3.90;1.90;;;;;;;29.48;32.12;100765.88;5045710;28;20057;-67
2022/08/04 04:16:49;;;;;;;5.65;2.38;;;;;;;29.43;32.19;100765.72;5028928;28;20605;-67
2022/08/04 04:19:44;;;;;;;3.78;1.80;;;;;;;29.40;32.26;100766.16;5008567;28;20042;-67
2022/08/04 04:22:44;;;;;;;6.45;2.17;;;;;;;29.41;32.22;100767.03;5008524;28;20045;-67
2022/08/04 04:25:26;;;;;;;4.30;1.95;;;;;;;29.37;32.50;100765.78;5038584;28;20100;-67
2022/08/04 04:28:11;;;;;;;4.47;2.03;;;;;;;29.33;32.14;100770.06;5029518;28;20045;-67
2022/08/04 04:31:10;;;;;;;3.78;2.08;;;;;;;29.31;32.25;100763.88;5038915;28;20053;-67
2022/08/04 04:33:52;;;;;;;4.03;2.10;;;;;;;29.29;32.31;100764.09;5048239;28;20464;-68
2022/08/04 04:36:29;;;;;;;5.03;2.25;;;;;;;29.25;32.59;100767.56;5048248;28;20519;-68
2022/08/04 04:39:10;;;;;;;4.32;2.00;;;;;;;29.25;32.66;100767.56;5030017;28;20151;-67
2022/08/04 04:41:55;;;;;;;4.20;1.88;;;;;;;29.22;32.70;100780.06;5048503;28;20037;-67
2022/08/04 04:45:02;;;;;;;5.30;2.17;;;;;;;29.15;32.54;100777.31;5032045;28;20041;-67
2022/08/04 04:47:42;;;;;;;5.50;2.08;;;;;;;29.15;32.65;100777.31;5017126;28;20080;-67
2022/08/04 04:50:44;;;;;;;5.18;2.55;;;;;;;29.15;32.95;100782.91;5027299;28;20052;-67
2022/08/04 04:53:20;;;;;;;4.85;2.25;;;;;;;29.14;33.04;100785.94;5021209;28;20042;-67
2022/08/04 04:56:00;;;;;;;5.03;2.55;;;;;;;29.13;33.21;100782.28;5009898;28;20531;-68
2022/08/04 04:58:31;;;;;;;4.70;2.20;;;;;;;29.12;32.89;100780.56;5028105;28;20091;-67
2022/08/04 05:01:21;;;;;;;5.45;2.50;;;;;;;29.12;32.96;100780.56;5039548;28;20540;-67
2022/08/04 05:04:28;;;;;;;4.60;1.90;;;;;;;29.09;33.04;100781.00;5049261;28;20382;-67
2022/08/04 05:07:37;;;;;;;4.65;2.15;;;;;;;29.04;33.06;100789.22;5019033;28;20336;-67
2022/08/04 05:10:19;;;;;;;5.13;2.13;;;;;;;29.10;33.04;100785.53;5016483;28;20049;-67
2022/08/04 05:13:12;;;;;;;4.10;2.00;;;;;;;29.08;33.22;100787.69;5013358;28;20489;-68
2022/08/04 05:16:07;;;;;;;4.65;2.28;;;;;;;29.11;33.50;100784.44;5010477;28;20582;-68
2022/08/04 05:18:38;;;;;;;4.35;2.35;;;;;;;29.15;33.30;100785.69;5011181;28;20472;-68
2022/08/04 05:21:19;;;;;;;5.15;2.42;;;;;;;29.20;33.40;100792.56;5012082;28;20117;-68
2022/08/04 05:23:54;;;;;;;5.13;2.53;;;;;;;29.27;33.31;100790.56;5011131;28;20423;-67
2022/08/04 05:26:29;;;;;;;5.68;2.95;;;;;;;29.34;33.34;100795.03;5011864;28;20057;-68
2022/08/04 05:29:02;;;;;;;8.95;2.90;;;;;;;29.44;33.17;100791.75;5023195;28;20107;-67
2022/08/04 05:31:36;;;;;;;4.78;2.90;;;;;;;29.59;33.26;100800.66;5033993;28;20143;-68
2022/08/04 05:34:09;;;;;;;6.93;2.67;;;;;;;29.74;33.10;100791.91;5040281;28;20061;-67
2022/08/04 05:36:41;;;;;;;6.97;2.80;;;;;;;29.95;33.11;100791.56;5027261;28;20033;-67
2022/08/04 05:39:17;;;;;;;4.75;2.75;;;;;;;30.20;32.88;100797.97;5010551;28;20411;-67
2022/08/04 05:41:46;;;;;;;6.05;2.90;;;;;;;30.43;32.82;100808.47;5020221;28;20077;-67
2022/08/04 05:44:27;;;;;;;7.65;3.03;;;;;;;30.73;32.40;100802.06;5030480;28;20092;-67
2022/08/04 05:46:57;;;;;;;4.72;2.78;;;;;;;31.03;32.02;100800.16;5036679;28;20041;-67
2022/08/04 05:49:27;;;;;;;4.97;2.72;;;;;;;31.32;31.64;100799.28;5043969;28;20159;-68
2022/08/04 05:51:59;;;;;;;4.93;2.55;;;;;;;31.60;31.11;100801.44;5042336;28;20132;-67
2022/08/04 05:54:32;;;;;;;4.00;2.63;;;;;;;31.89;30.68;100798.78;5049628;28;20045;-68
2022/08/04 05:57:03;;;;;;;4.95;2.60;;;;;;;32.08;30.53;100795.63;5038465;28;20048;-68
2022/08/04 05:59:32;;;;;;;5.25;2.60;;;;;;;32.30;30.24;100801.47;5026080;28;20510;-67
2022/08/04 06:02:02;;;;;;;4.15;2.40;;;;;;;32.50;29.68;100799.13;5029831;28;20123;-67
2022/08/04 06:04:33;;;;;;;5.18;2.45;;;;;;;32.71;29.76;100791.16;5029727;28;20046;-67
2022/08/04 06:07:01;;;;;;;5.40;2.42;;;;;;;32.83;29.23;100789.16;5031155;28;20435;-67
2022/08/04 06:09:32;;;;;;;4.05;2.50;;;;;;;33.00;28.78;100789.22;5029091;28;20557;-67
2022/08/04 06:12:01;;;;;;;5.80;2.70;;;;;;;33.07;28.83;100785.13;5034291;28;20068;-68
2022/08/04 06:14:35;;;;;;;4.63;2.60;;;;;;;33.15;28.60;100784.72;5040225;28;20100;-64
2022/08/04 06:17:05;;;;;;;5.55;2.90;;;;;;;33.23;28.62;100777.88;5028511;28;20046;-62
2022/08/04 06:19:55;;;;;;;4.63;2.65;;;;;;;33.26;28.23;100782.13;5026849;28;20045;-64
2022/08/04 06:22:46;;;;;;;4.22;2.53;;;;;;;33.28;28.21;100785.53;5030893;28;20099;-65
2022/08/04 06:25:19;;;;;;;5.00;2.60;;;;;;;33.27;27.70;100784.72;5030721;28;20116;-65
2022/08/04 06:27:49;;;;;;;3.30;2.30;;;;;;;33.22;27.65;100782.63;5011607;28;20145;-65
2022/08/04 06:30:19;;;;;;;4.22;2.55;;;;;;;33.16;27.50;100785.59;5028574;28;20043;-65
2022/08/04 06:32:54;;;;;;;4.63;2.60;;;;;;;33.14;28.01;100782.16;5024584;28;20042;-65
2022/08/04 06:35:33;;;;;;;3.40;2.33;;;;;;;33.08;27.59;100786.84;5028987;28;20139;-65
2022/08/04 06:38:03;;;;;;;4.15;2.95;;;;;;;33.07;27.58;100787.09;5029391;28;20052;-65
2022/08/04 06:40:34;;;;;;;4.90;3.03;;;;;;;33.09;27.52;100784.88;5029441;28;20041;-64
2022/08/04 06:43:05;;;;;;;4.90;2.85;;;;;;;33.07;27.18;100784.28;5030467;28;20257;-65
2022/08/04 06:45:35;;;;;;;5.00;2.92;;;;;;;33.09;27.33;100785.75;5029410;28;20053;-65
2022/08/04 06:48:06;;;;;;;4.47;3.00;;;;;;;33.14;27.07;100782.16;5036811;28;20041;-67
2022/08/04 06:50:35;;;;;;;4.47;3.05;;;;;;;33.16;27.70;100780.81;5034959;28;20068;-68
2022/08/04 06:53:27;;;;;;;4.88;3.20;;;;;;;33.18;27.31;100781.41;5007953;28;20042;-81
2022/08/04 06:55:57;;;;;;;5.00;3.30;;;;;;;33.26;27.20;100779.31;4983112;28;20058;-80
2022/08/04 06:58:27;;;;;;;5.93;3.10;;;;;;;33.29;26.71;100778.81;4970558;28;20058;-82
2022/08/04 07:01:00;;;;;;;4.82;3.00;;;;;;;33.35;27.18;100775.84;4985746;28;20047;-82
2022/08/04 07:03:30;;;;;;;4.57;2.90;;;;;;;33.43;27.11;100774.56;5001266;28;20046;-83
2022/08/04 07:06:02;;;;;;;5.57;3.30;;;;;;;33.53;26.52;100769.94;4998807;28;20077;-82
2022/08/04 07:08:35;;;;;;;4.07;2.92;;;;;;;33.60;26.84;100779.06;5009335;28;20038;-82
2022/08/04 07:11:05;;;;;;;5.65;3.00;;;;;;;33.70;26.49;100786.84;5032486;28;20484;-82
2022/08/04 07:13:34;;;;;;;5.28;2.95;;;;;;;33.79;26.46;100781.66;5022274;28;20038;-82
2022/08/04 07:16:04;;;;;;;5.35;3.00;;;;;;;33.89;26.24;100779.88;5022502;28;20092;-82
2022/08/04 07:18:38;;;;;;;6.32;2.80;;;;;;;34.03;26.46;100785.97;5019594;28;20049;-82
2022/08/04 07:21:06;;;;;;;5.25;3.03;;;;;;;34.10;26.02;100786.66;5018895;28;20057;-82
2022/08/04 07:23:35;;;;;;;5.85;3.28;;;;;;;34.20;26.25;100789.63;5019620;28;20711;-82
2022/08/04 07:26:05;;;;;;;5.05;2.60;;;;;;;34.30;25.61;100786.13;5027911;28;20080;-82
2022/08/04 07:28:42;;;;;;;4.32;2.53;;;;;;;34.40;25.89;100783.47;5025689;28;20133;-82
2022/08/04 07:31:13;;;;;;;3.83;2.67;;;;;;;34.51;25.95;100781.66;5001638;28;20073;-81
2022/08/04 07:34:01;;;;;;;5.50;3.08;;;;;;;34.56;25.74;100793.81;5016954;28;20480;-82
2022/08/04 07:36:49;;;;;;;5.70;2.80;;;;;;;34.69;25.88;100784.09;5009918;28;20405;-82
2022/08/04 07:39:20;;;;;;;4.20;2.72;;;;;;;34.78;25.22;100790.16;5012430;28;20119;-82
2022/08/04 07:41:57;;;;;;;4.80;2.78;;;;;;;34.88;25.50;100777.03;5017247;28;20046;-82
2022/08/04 07:44:27;;;;;;;4.10;2.60;;;;;;;35.00;25.80;100782.53;5032407;28;20077;-82
2022/08/04 07:46:55;;;;;;;4.95;2.97;;;;;;;35.07;25.10;100795.31;5032860;28;20077;-82
2022/08/04 07:49:25;;;;;;;5.40;2.85;;;;;;;35.15;24.69;100788.34;5018138;28;20042;-83
2022/08/04 07:52:14;;;;;;;5.18;2.70;;;;;;;35.24;25.11;100783.09;5018099;28;20050;-81
2022/08/04 07:54:45;;;;;;;3.15;2.55;;;;;;;35.33;25.05;100784.34;4998410;28;20444;-82
2022/08/04 07:57:38;;;;;;;5.35;2.70;;;;;;;35.40;25.00;100779.31;5014748;28;20062;-82
2022/08/04 08:00:14;;;;;;;4.07;2.80;;;;;;;35.54;24.61;100785.34;5016185;28;20099;-82
2022/08/04 08:02:43;;;;;;;4.45;3.05;;;;;;;35.62;24.43;100784.84;4999432;28;20052;-81
2022/08/04 08:05:15;;;;;;;5.47;2.85;;;;;;;35.74;24.74;100794.91;5008019;28;20136;-80
2022/08/04 08:07:45;;;;;;;3.70;2.55;;;;;;;35.85;24.44;100801.47;5012620;28;20468;-80
2022/08/04 08:10:21;;;;;;;3.92;2.58;;;;;;;35.94;24.92;100796.16;5012043;28;20052;-80
2022/08/04 08:12:51;;;;;;;4.13;2.83;;;;;;;36.06;24.82;100792.03;4999259;28;20133;-80
2022/08/04 08:15:22;;;;;;;5.22;2.95;;;;;;;36.18;24.69;100792.66;5012718;28;20500;-80
2022/08/04 08:17:51;;;;;;;4.80;2.78;;;;;;;36.25;24.51;100794.41;4994361;28;20076;-82
2022/08/04 08:20:26;;;;;;;3.88;2.40;;;;;;;36.38;24.04;100793.94;5017664;28;20073;-82
2022/08/04 08:22:58;;;;;;;4.18;2.58;;;;;;;36.48;23.89;100789.19;5033254;28;20084;-82
2022/08/04 08:25:27;;;;;;;4.25;2.40;;;;;;;36.58;23.58;100783.56;5021442;28;20050;-82
2022/08/04 08:27:55;;;;;;;4.68;2.40;;;;;;;36.69;24.07;100790.16;5014298;28;20042;-82
2022/08/04 08:30:26;;;;;;;3.90;2.67;;;;;;;36.83;23.38;100781.97;5012370;28;20080;-82
2022/08/04 08:33:06;;;;;;;4.15;2.97;;;;;;;36.93;23.47;100773.53;5030657;28;20467;-83
2022/08/04 08:35:56;;;;;;;4.32;2.40;;;;;;;37.00;22.88;100764.75;5000425;28;20061;-82
2022/08/04 08:38:37;;;;;;;3.60;2.30;;;;;;;37.12;22.43;100771.03;4999931;28;20049;-82
2022/08/04 08:41:37;;;;;;;5.25;2.58;;;;;;;37.19;22.68;100764.00;5040263;28;20069;-82
2022/08/04 08:44:25;;;;;;;3.53;2.28;;;;;;;37.29;22.41;100764.00;5000120;28;20045;-83
2022/08/04 08:47:28;;;;;;;4.18;2.50;;;;;;;37.38;22.51;100760.63;4998063;28;20056;-83
2022/08/04 08:50:57;;;;;;;5.22;2.45;;;;;;;37.42;22.86;100771.09;5015124;28;20523;-83
2022/08/04 08:53:59;;;;;;;4.18;2.40;;;;;;;37.54;22.57;100776.47;5015477;28;20061;-83
2022/08/04 08:56:37;;;;;;;4.57;2.63;;;;;;;37.63;22.24;100772.84;5005297;28;20042;-83
2022/08/04 08:59:26;;;;;;;5.10;2.30;;;;;;;37.75;22.36;100772.53;5022217;28;20054;-83
2022/08/04 09:02:18;;;;;;;3.92;2.30;;;;;;;37.85;22.50;100775.38;5018819;28;20532;-83
2022/08/04 09:05:07;;;;;;;4.65;2.20;;;;;;;37.97;21.96;100770.22;5006595;28;20050;-83
2022/08/04 09:08:02;;;;;;;4.35;2.22;;;;;;;38.08;22.50;100766.28;5015728;28;20061;-84
2022/08/04 09:10:39;;;;;;;3.50;2.22;;;;;;;38.21;22.18;100764.00;5012763;28;20076;-84
2022/08/04 09:13:16;;;;;;;3.20;2.15;;;;;;;38.32;22.30;100771.31;5007185;28;20045;-82
2022/08/04 09:15:51;;;;;;;4.03;2.33;;;;;;;38.43;21.91;100775.81;5008638;28;20053;-81
2022/08/04 09:18:26;;;;;;;5.03;2.30;;;;;;;38.51;22.11;100769.59;5014889;28;20040;-84
2022/08/04 09:21:02;;;;;;;5.15;2.30;;;;;;;38.61;21.32;100769.53;5013385;28;20145;-83
2022/08/04 09:23:41;;;;;;;3.65;2.25;;;;;;;38.70;21.05;100775.47;5002894;28;20061;-83
2022/08/04 09:26:15;;;;;;;2.95;2.17;;;;;;;38.76;21.85;100777.97;5017703;28;20046;-84
2022/08/04 09:28:51;;;;;;;4.75;2.42;;;;;;;38.84;20.99;100785.03;5017534;28;20542;-83
2022/08/04 09:31:24;;;;;;;3.53;2.30;;;;;;;38.91;21.68;100777.03;4998883;28;20678;-82
2022/08/04 09:34:01;;;;;;;4.57;2.55;;;;;;;39.00;21.60;100783.84;5012037;28;20069;-84
2022/08/04 09:36:35;;;;;;;7.28;2.80;;;;;;;39.08;20.99;100785.22;5011758;28;20038;-81
2022/08/04 09:39:09;;;;;;;3.42;2.33;;;;;;;39.13;20.86;100777.50;5027246;28;20437;-81
2022/08/04 09:41:47;;;;;;;3.40;2.13;;;;;;;39.18;20.75;100777.47;5017220;28;20049;-82
2022/08/04 09:44:29;;;;;;;3.58;2.00;;;;;;;39.21;20.28;100776.03;5013681;28;20077;-83
2022/08/04 09:47:24;;;;;;;3.85;2.05;;;;;;;39.25;20.41;100780.00;5012982;28;20038;-82
2022/08/04 09:50:16;;;;;;;2.60;1.88;;;;;;;39.30;20.88;100776.25;5019654;28;20130;-84
2022/08/04 09:52:58;;;;;;;2.85;1.92;;;;;;;39.35;20.32;100779.06;5018968;28;20037;-83
2022/08/04 09:55:40;;;;;;;4.00;2.10;;;;;;;39.38;20.32;100779.34;5030656;28;20057;-83
2022/08/04 09:58:33;;;;;;;3.25;1.73;;;;;;;39.45;20.04;100788.38;5019610;28;20030;-82
2022/08/04 10:01:04;;;;;;;5.10;1.90;;;;;;;39.51;20.59;100792.91;5034267;28;20049;-82
2022/08/04 10:03:37;;;;;;;2.60;1.63;;;;;;;39.54;19.73;100780.06;5024482;28;20082;-82
2022/08/04 10:06:24;;;;;;;3.50;1.80;;;;;;;39.60;19.74;100786.56;5020030;28;20046;-83
2022/08/04 10:09:07;;;;;;;5.28;1.80;;;;;;;39.62;19.15;100793.63;5036312;28;20456;-82
2022/08/04 10:11:52;;;;;;;4.25;1.70;;;;;;;39.63;19.25;100795.34;5001887;28;20053;-83
2022/08/04 10:18:28;;;;;;;3.15;1.98;;;;;;;39.58;19.69;100789.72;5023049;28;20038;-83
2022/08/04 10:21:04;;;;;;;2.83;1.90;;;;;;;39.67;19.78;100798.44;5008150;28;20034;-82
2022/08/04 10:24:07;;;;;;;4.40;1.90;;;;;;;39.66;20.13;100797.59;5016876;28;20045;-83
2022/08/04 10:26:45;;;;;;;3.58;1.70;;;;;;;39.70;19.61;100810.06;5019915;28;20144;-83
2022/08/04 10:29:18;;;;;;;3.53;1.60;;;;;;;39.69;19.55;100808.38;5028033;28;20064;-83
2022/08/04 10:31:53;;;;;;;3.45;1.60;;;;;;;39.72;19.26;100818.28;5011919;28;20085;-83
2022/08/04 10:34:27;;;;;;;3.97;1.52;;;;;;;39.72;18.64;100798.41;4998044;28;20049;-83
2022/08/04 10:37:04;;;;;;;3.38;1.60;;;;;;;39.72;19.00;100809.75;5016792;28;20491;-82
2022/08/04 10:40:35;;;;;;;3.67;1.50;;;;;;;39.70;18.74;100801.53;5015693;28;20048;-82
2022/08/04 10:42:37;;;;;;;2.88;1.42;;;;;;;39.65;18.35;100806.41;5023344;28;20142;-83
2022/08/04 10:45:14;;;;;;;4.53;1.52;;;;;;;39.66;18.56;100808.97;5024256;28;20060;-82
2022/08/04 10:47:49;;;;;;;4.15;1.50;;;;;;;39.65;18.26;100797.91;5039739;28;20042;-82
2022/08/04 10:50:23;;;;;;;4.65;1.55;;;;;;;39.64;18.96;100814.09;5014409;28;20046;-82
2022/08/04 10:52:57;;;;;;;2.65;1.40;;;;;;;39.65;18.88;100817.78;5014031;28;20034;-81
2022/08/04 10:55:33;;;;;;;2.72;1.50;;;;;;;39.69;18.90;100816.91;5013166;28;20049;-81
2022/08/04 10:58:26;;;;;;;2.42;1.50;;;;;;;39.73;19.00;100817.16;5017990;28;20120;-81
2022/08/04 11:01:23;;;;;;;3.67;1.50;;;;;;;39.79;18.73;100816.81;5018529;28;20053;-82
2022/08/04 11:04:21;;;;;;;3.13;1.60;;;;;;;39.87;18.63;100815.34;5031358;28;20095;-80
2022/08/04 11:06:56;;;;;;;2.17;1.55;;;;;;;39.90;18.72;100809.06;5020282;28;20381;-81
2022/08/04 11:09:24;;;;;;;4.05;1.60;;;;;;;39.96;18.69;100807.88;5016791;28;20084;-80
2022/08/04 11:12:01;;;;;;;2.13;1.40;;;;;;;40.04;18.23;100812.91;5018293;28;20459;-81
2022/08/04 11:14:36;;;;;;;3.90;1.50;;;;;;;40.07;18.28;100817.16;5011646;28;20045;-80
2022/08/04 11:17:11;;;;;;;2.20;1.50;;;;;;;40.10;18.13;100825.97;4997378;28;20056;-80
2022/08/04 11:19:46;;;;;;;2.45;1.58;;;;;;;40.13;17.89;100821.63;5024926;28;20484;-80
2022/08/04 11:22:25;;;;;;;3.55;1.70;;;;;;;40.14;18.23;100821.34;5014414;28;20076;-82
2022/08/04 11:24:58;;;;;;;3.75;1.60;;;;;;;40.16;18.33;100829.59;5010577;28;20534;-80
2022/08/04 11:27:37;;;;;;;3.05;1.75;;;;;;;40.18;18.18;100830.13;4996987;28;20042;-81
2022/08/04 11:30:07;;;;;;;4.20;1.67;;;;;;;40.15;18.37;100830.72;5013204;28;20140;-83
2022/08/04 11:32:43;;;;;;;3.13;1.67;;;;;;;40.15;18.09;100825.91;5018418;28;20081;-83
2022/08/04 11:35:17;;;;;;;2.15;1.63;;;;;;;40.14;17.87;100829.03;5039296;28;20049;-84
2022/08/04 11:37:52;;;;;;;3.35;1.60;;;;;;;40.09;17.77;100827.09;5008375;28;20053;-83
2022/08/04 11:40:24;;;;;;;3.28;1.88;;;;;;;40.06;18.35;100833.38;5016730;28;20042;-83
2022/08/04 11:42:58;;;;;;;3.88;1.95;;;;;;;40.02;18.05;100832.28;5021147;28;20057;-82
2022/08/04 11:45:32;;;;;;;5.03;1.95;;;;;;;39.97;18.20;100846.53;5022779;28;20050;-82
2022/08/04 11:48:05;;;;;;;3.83;1.75;;;;;;;39.91;18.75;100851.44;5014750;28;20116;-83
2022/08/04 11:50:40;;;;;;;3.60;1.88;;;;;;;39.85;18.71;100843.25;5013731;28;20042;-84
2022/08/04 11:53:11;;;;;;;4.20;1.90;;;;;;;39.77;19.06;100850.41;5016535;28;20038;-81
2022/08/04 11:55:40;;;;;;;;;;;;;;;39.42;19.35;100857.19;5009439;28;20052;-81
2022/08/04 11:58:31;;;;;;;4.10;1.60;;;;;;;39.60;19.51;100857.63;5025271;28;19921;-82
2022/08/04 12:01:08;;;;;;;5.13;1.50;;;;;;;39.56;18.79;100868.72;5016011;28;20492;-82
2022/08/04 12:03:46;;;;;;;3.05;1.77;;;;;;;39.49;19.79;100869.06;5014714;28;20603;-83
2022/08/04 12:06:38;;;;;;;3.28;1.67;;;;;;;39.38;20.07;100872.22;4998124;28;20406;-82
2022/08/04 12:09:32;;;;;;;4.30;1.63;;;;;;;39.30;20.00;100867.16;5017212;28;20054;-82
2022/08/04 12:12:10;;;;;;;3.30;1.60;;;;;;;39.20;20.14;100859.56;5014383;28;20050;-81
2022/08/04 12:14:51;;;;;;;3.72;1.67;;;;;;;39.11;20.52;100853.66;5013173;28;20085;-82
2022/08/04 12:17:25;;;;;;;3.20;1.50;;;;;;;39.02;20.73;100851.72;5029605;28;20050;-82
2022/08/04 12:20:05;;;;;;;3.22;1.50;;;;;;;38.94;20.57;100849.44;5013595;28;20454;-84
2022/08/04 12:22:55;;;;;;;5.15;1.90;;;;;;;38.87;20.58;100848.91;5015455;28;20041;-84
2022/08/04 12:25:30;;;;;;;2.95;1.63;;;;;;;38.82;20.12;100852.59;4985859;28;20042;-84
2022/08/04 12:28:05;;;;;;;3.33;1.65;;;;;;;38.78;20.37;100846.69;5017026;28;20494;-83
2022/08/04 12:30:38;;;;;;;4.15;1.70;;;;;;;38.76;20.18;100850.94;5015820;28;20041;-82